KICT/ICT METAR and TAF weather

Enter ICAO airport designator
Station Type Date Time Source
KICT METAR 2019/08/19 11:53 UTC NOAA

KICT 191153Z 12008KT 10SM FEW250 25/22 A2995 RMK AO2 SLP123 70003 T02500222 10272 20244 53015 $


Station Type Date Time Source
KICT Decoded METAR 2019/08/19 11:53 UTC NOAA

Station name not available
Aug 19, 2019 - 07:53 AM EDT / 2019.08.19 1153 UTC
Wind: from the ESE (120 degrees) at 9 MPH (8 KT):0
Visibility: 10 mile(s):0
Sky conditions: mostly clear
Temperature: 77.0 F (25.0 C)
Dew Point: 72.0 F (22.2 C)
Relative Humidity: 84%
Pressure (altimeter): 29.95 in. Hg (1014 hPa)
Pressure tendency: 0.04 inches (1.5 hPa) higher than three hours ago
ob: KICT 191153Z 12008KT 10SM FEW250 25/22 A2995 RMK AO2 SLP123 70003 T02500222 10272 20244 53015
cycle: 12

Station Type Date Time Source
KICT TAF 2019/08/19 12:42 UTC NOAA

TAF KICT 191140Z 1912/2012 13007KT P6SM SCT060 BKN300
FM192000 17013KT P6SM SCT060

Example: see airport list